sensor_id;sensor_type;location;lat;lon;timestamp;pressure;altitude;pressure_sealevel;temperature;humidity
73594;BME280;64760;53.404;23.498;2023-04-25T00:02:12;98447.38;;;10.08;63.95
73594;BME280;64760;53.404;23.498;2023-04-25T00:04:39;98446.78;;;10.06;63.79
73594;BME280;64760;53.404;23.498;2023-04-25T00:07:05;98441.19;;;10.08;64.04
73594;BME280;64760;53.404;23.498;2023-04-25T00:09:32;98437.31;;;10.04;64.44
73594;BME280;64760;53.404;23.498;2023-04-25T00:11:59;98434.88;;;10.02;65.25
73594;BME280;64760;53.404;23.498;2023-04-25T00:14:24;98420.78;;;9.95;65.07
73594;BME280;64760;53.404;23.498;2023-04-25T00:16:51;98417.69;;;9.91;65.40
73594;BME280;64760;53.404;23.498;2023-04-25T00:19:17;98407.44;;;9.88;65.39
73594;BME280;64760;53.404;23.498;2023-04-25T00:21:43;98410.13;;;9.88;65.60
73594;BME280;64760;53.404;23.498;2023-04-25T00:24:11;98416.59;;;9.81;66.49
73594;BME280;64760;53.404;23.498;2023-04-25T00:26:37;98409.91;;;9.72;66.52
73594;BME280;64760;53.404;23.498;2023-04-25T00:29:03;98406.88;;;9.68;66.86
73594;BME280;64760;53.404;23.498;2023-04-25T00:31:30;98404.72;;;9.59;67.48
73594;BME280;64760;53.404;23.498;2023-04-25T00:33:56;98414.59;;;9.58;67.43
73594;BME280;64760;53.404;23.498;2023-04-25T00:36:23;98409.91;;;9.54;68.38
73594;BME280;64760;53.404;23.498;2023-04-25T00:38:50;98400.91;;;9.48;68.26
73594;BME280;64760;53.404;23.498;2023-04-25T00:41:16;98383.75;;;9.37;68.68
73594;BME280;64760;53.404;23.498;2023-04-25T00:43:44;98393.19;;;9.40;69.45
73594;BME280;64760;53.404;23.498;2023-04-25T00:46:11;98396.31;;;9.37;69.74
73594;BME280;64760;53.404;23.498;2023-04-25T00:48:37;98388.81;;;9.27;70.68
73594;BME280;64760;53.404;23.498;2023-04-25T00:51:04;98387.50;;;9.12;70.86
73594;BME280;64760;53.404;23.498;2023-04-25T00:53:30;98388.47;;;8.99;71.81
73594;BME280;64760;53.404;23.498;2023-04-25T00:55:58;98381.09;;;8.94;71.73
73594;BME280;64760;53.404;23.498;2023-04-25T00:58:24;98382.34;;;8.92;72.04
73594;BME280;64760;53.404;23.498;2023-04-25T01:00:51;98386.88;;;8.91;72.83
73594;BME280;64760;53.404;23.498;2023-04-25T01:03:18;98389.56;;;8.91;73.27
73594;BME280;64760;53.404;23.498;2023-04-25T01:05:47;98385.44;;;8.89;73.44
73594;BME280;64760;53.404;23.498;2023-04-25T01:08:14;98387.53;;;8.87;73.12
73594;BME280;64760;53.404;23.498;2023-04-25T01:10:40;98386.47;;;8.88;73.60
73594;BME280;64760;53.404;23.498;2023-04-25T01:13:06;98394.09;;;8.91;73.69
73594;BME280;64760;53.404;23.498;2023-04-25T01:15:33;98375.00;;;8.87;74.07
73594;BME280;64760;53.404;23.498;2023-04-25T01:18:03;98396.31;;;8.94;73.57
73594;BME280;64760;53.404;23.498;2023-04-25T01:20:32;98400.63;;;8.95;73.64
73594;BME280;64760;53.404;23.498;2023-04-25T01:22:58;98398.53;;;8.97;73.65
73594;BME280;64760;53.404;23.498;2023-04-25T01:25:25;98396.13;;;8.89;73.85
73594;BME280;64760;53.404;23.498;2023-04-25T01:30:38;98395.09;;;8.65;75.13
73594;BME280;64760;53.404;23.498;2023-04-25T01:33:05;98394.91;;;8.60;75.88
73594;BME280;64760;53.404;23.498;2023-04-25T01:35:33;98384.47;;;8.59;76.24
73594;BME280;64760;53.404;23.498;2023-04-25T01:38:00;98392.69;;;8.57;76.45
73594;BME280;64760;53.404;23.498;2023-04-25T01:40:27;98389.00;;;8.58;76.87
73594;BME280;64760;53.404;23.498;2023-04-25T01:42:53;98387.31;;;8.64;76.89
73594;BME280;64760;53.404;23.498;2023-04-25T01:45:21;98397.94;;;8.70;76.04
73594;BME280;64760;53.404;23.498;2023-04-25T01:47:48;98394.63;;;8.75;76.35
73594;BME280;64760;53.404;23.498;2023-04-25T01:50:17;98399.72;;;8.76;75.91
73594;BME280;64760;53.404;23.498;2023-04-25T01:52:44;98382.72;;;8.71;76.27
73594;BME280;64760;53.404;23.498;2023-04-25T01:55:12;98375.53;;;8.71;76.53
73594;BME280;64760;53.404;23.498;2023-04-25T01:57:43;98386.81;;;8.73;76.48
73594;BME280;64760;53.404;23.498;2023-04-25T02:00:11;98380.28;;;8.69;76.57
73594;BME280;64760;53.404;23.498;2023-04-25T02:02:40;98374.09;;;8.69;76.95
73594;BME280;64760;53.404;23.498;2023-04-25T02:05:16;98377.00;;;8.67;77.71
73594;BME280;64760;53.404;23.498;2023-04-25T02:07:44;98368.81;;;8.62;78.01
73594;BME280;64760;53.404;23.498;2023-04-25T02:10:10;98367.78;;;8.63;77.68
73594;BME280;64760;53.404;23.498;2023-04-25T02:12:49;98360.00;;;8.62;78.28
73594;BME280;64760;53.404;23.498;2023-04-25T02:15:44;98352.81;;;8.62;78.23
73594;BME280;64760;53.404;23.498;2023-04-25T02:21:23;98357.06;;;8.70;78.18
73594;BME280;64760;53.404;23.498;2023-04-25T02:23:50;98352.97;;;8.67;78.00
73594;BME280;64760;53.404;23.498;2023-04-25T02:26:18;98350.50;;;8.66;78.23
73594;BME280;64760;53.404;23.498;2023-04-25T02:28:45;98351.53;;;8.65;77.95
73594;BME280;64760;53.404;23.498;2023-04-25T02:31:11;98349.50;;;8.60;78.31
73594;BME280;64760;53.404;23.498;2023-04-25T02:33:38;98340.75;;;8.53;79.14
73594;BME280;64760;53.404;23.498;2023-04-25T02:36:06;98343.69;;;8.45;79.78
73594;BME280;64760;53.404;23.498;2023-04-25T02:38:32;98337.97;;;8.41;79.94
73594;BME280;64760;53.404;23.498;2023-04-25T02:40:59;98332.44;;;8.36;80.28
73594;BME280;64760;53.404;23.498;2023-04-25T02:43:25;98330.44;;;8.32;80.99
73594;BME280;64760;53.404;23.498;2023-04-25T02:45:52;98324.28;;;8.25;81.11
73594;BME280;64760;53.404;23.498;2023-04-25T02:48:18;98327.84;;;8.19;81.67
73594;BME280;64760;53.404;23.498;2023-04-25T02:50:44;98324.97;;;8.14;82.25
73594;BME280;64760;53.404;23.498;2023-04-25T02:53:11;98323.19;;;8.08;82.73
73594;BME280;64760;53.404;23.498;2023-04-25T02:55:44;98325.19;;;8.12;82.56
73594;BME280;64760;53.404;23.498;2023-04-25T02:58:11;98318.25;;;8.11;82.74
73594;BME280;64760;53.404;23.498;2023-04-25T03:00:44;98329.72;;;8.12;82.79
73594;BME280;64760;53.404;23.498;2023-04-25T03:03:10;98321.53;;;8.07;83.08
73594;BME280;64760;53.404;23.498;2023-04-25T03:05:37;98324.59;;;8.10;83.24
73594;BME280;64760;53.404;23.498;2023-04-25T03:08:04;98317.78;;;8.14;82.75
73594;BME280;64760;53.404;23.498;2023-04-25T03:10:32;98319.59;;;8.20;82.55
73594;BME280;64760;53.404;23.498;2023-04-25T03:13:03;98319.59;;;8.20;82.64
73594;BME280;64760;53.404;23.498;2023-04-25T03:15:29;98324.13;;;8.20;82.34
73594;BME280;64760;53.404;23.498;2023-04-25T03:17:57;98324.34;;;8.18;82.91
73594;BME280;64760;53.404;23.498;2023-04-25T03:20:24;98316.91;;;8.20;83.09
73594;BME280;64760;53.404;23.498;2023-04-25T03:22:50;98319.38;;;8.22;82.39
73594;BME280;64760;53.404;23.498;2023-04-25T03:25:18;98320.84;;;8.18;83.28
73594;BME280;64760;53.404;23.498;2023-04-25T03:27:45;98318.00;;;8.13;83.51
73594;BME280;64760;53.404;23.498;2023-04-25T03:30:12;98308.78;;;8.09;83.53
73594;BME280;64760;53.404;23.498;2023-04-25T03:32:39;98319.06;;;8.12;84.12
73594;BME280;64760;53.404;23.498;2023-04-25T03:35:07;98317.63;;;8.09;84.02
73594;BME280;64760;53.404;23.498;2023-04-25T03:37:34;98314.13;;;8.09;84.22
73594;BME280;64760;53.404;23.498;2023-04-25T03:40:00;98320.91;;;8.11;84.46
73594;BME280;64760;53.404;23.498;2023-04-25T03:42:38;98302.66;;;8.08;85.03
73594;BME280;64760;53.404;23.498;2023-04-25T03:45:05;98308.59;;;8.10;84.59
73594;BME280;64760;53.404;23.498;2023-04-25T03:47:32;98304.50;;;8.08;85.08
73594;BME280;64760;53.404;23.498;2023-04-25T03:49:58;98301.41;;;8.11;85.59
73594;BME280;64760;53.404;23.498;2023-04-25T03:52:26;98308.00;;;8.08;85.56
73594;BME280;64760;53.404;23.498;2023-04-25T03:54:53;98306.31;;;8.14;86.00
73594;BME280;64760;53.404;23.498;2023-04-25T03:57:21;98316.34;;;8.18;85.23
73594;BME280;64760;53.404;23.498;2023-04-25T03:59:48;98318.19;;;8.18;85.58
73594;BME280;64760;53.404;23.498;2023-04-25T04:02:17;98318.78;;;8.20;85.52
73594;BME280;64760;53.404;23.498;2023-04-25T04:04:44;98326.81;;;8.20;86.06
73594;BME280;64760;53.404;23.498;2023-04-25T04:07:11;98321.06;;;8.16;86.71
73594;BME280;64760;53.404;23.498;2023-04-25T04:09:40;98310.22;;;8.11;87.05
73594;BME280;64760;53.404;23.498;2023-04-25T04:12:12;98330.88;;;8.22;86.77
73594;BME280;64760;53.404;23.498;2023-04-25T04:14:40;98321.84;;;8.23;86.73
73594;BME280;64760;53.404;23.498;2023-04-25T04:17:06;98319.34;;;8.35;86.83
73594;BME280;64760;53.404;23.498;2023-04-25T04:19:33;98314.31;;;8.45;86.01
73594;BME280;64760;53.404;23.498;2023-04-25T04:22:06;98319.56;;;8.58;85.21
73594;BME280;64760;53.404;23.498;2023-04-25T04:24:32;98314.69;;;8.73;83.75
73594;BME280;64760;53.404;23.498;2023-04-25T04:27:05;98299.19;;;8.82;84.09
73594;BME280;64760;53.404;23.498;2023-04-25T04:29:52;98306.47;;;8.93;84.01
73594;BME280;64760;53.404;23.498;2023-04-25T04:32:36;98302.94;;;8.99;83.53
73594;BME280;64760;53.404;23.498;2023-04-25T04:35:04;98318.25;;;9.10;83.25
73594;BME280;64760;53.404;23.498;2023-04-25T04:37:32;98317.34;;;9.16;82.48
73594;BME280;64760;53.404;23.498;2023-04-25T04:40:00;98320.47;;;9.31;81.82
73594;BME280;64760;53.404;23.498;2023-04-25T04:42:51;98323.66;;;9.40;81.58
73594;BME280;64760;53.404;23.498;2023-04-25T04:45:36;98320.09;;;9.46;81.37
73594;BME280;64760;53.404;23.498;2023-04-25T04:48:22;98317.28;;;9.59;80.54
73594;BME280;64760;53.404;23.498;2023-04-25T04:50:59;98316.72;;;9.69;81.17
73594;BME280;64760;53.404;23.498;2023-04-25T04:53:44;98318.94;;;9.72;80.46
73594;BME280;64760;53.404;23.498;2023-04-25T04:56:30;98312.09;;;9.76;79.91
73594;BME280;64760;53.404;23.498;2023-04-25T04:59:15;98307.72;;;9.81;79.96
73594;BME280;64760;53.404;23.498;2023-04-25T05:02:00;98308.44;;;9.88;79.30
73594;BME280;64760;53.404;23.498;2023-04-25T05:04:56;98297.88;;;9.94;79.22
73594;BME280;64760;53.404;23.498;2023-04-25T05:07:51;98302.44;;;10.05;78.81
73594;BME280;64760;53.404;23.498;2023-04-25T05:10:37;98285.81;;;10.03;79.02
73594;BME280;64760;53.404;23.498;2023-04-25T05:13:36;98299.81;;;10.16;78.34
73594;BME280;64760;53.404;23.498;2023-04-25T05:16:29;98298.41;;;10.14;78.52
73594;BME280;64760;53.404;23.498;2023-04-25T05:19:21;98299.13;;;10.21;78.22
73594;BME280;64760;53.404;23.498;2023-04-25T05:22:02;98297.56;;;10.13;78.37
73594;BME280;64760;53.404;23.498;2023-04-25T05:24:48;98307.66;;;10.29;78.42
73594;BME280;64760;53.404;23.498;2023-04-25T05:27:29;98308.25;;;10.43;78.45
73594;BME280;64760;53.404;23.498;2023-04-25T05:30:13;98298.84;;;10.52;78.75
73594;BME280;64760;53.404;23.498;2023-04-25T05:32:58;98296.88;;;10.59;78.67
73594;BME280;64760;53.404;23.498;2023-04-25T05:35:25;98301.19;;;10.72;77.78
73594;BME280;64760;53.404;23.498;2023-04-25T05:37:51;98296.31;;;10.80;77.35
73594;BME280;64760;53.404;23.498;2023-04-25T05:40:19;98298.06;;;10.87;77.38
73594;BME280;64760;53.404;23.498;2023-04-25T05:43:04;98285.34;;;10.82;78.23
73594;BME280;64760;53.404;23.498;2023-04-25T05:45:51;98279.16;;;10.93;77.05
73594;BME280;64760;53.404;23.498;2023-04-25T05:48:29;98286.59;;;11.03;76.33
73594;BME280;64760;53.404;23.498;2023-04-25T05:51:19;98280.19;;;11.04;75.66
73594;BME280;64760;53.404;23.498;2023-04-25T05:54:05;98288.38;;;11.09;75.71
73594;BME280;64760;53.404;23.498;2023-04-25T05:56:33;98283.69;;;11.16;75.49
73594;BME280;64760;53.404;23.498;2023-04-25T05:59:00;98289.38;;;11.31;74.56
73594;BME280;64760;53.404;23.498;2023-04-25T06:01:27;98273.81;;;11.45;74.55
73594;BME280;64760;53.404;23.498;2023-04-25T06:03:53;98280.19;;;11.55;74.95
73594;BME280;64760;53.404;23.498;2023-04-25T06:06:19;98278.28;;;11.67;74.64
73594;BME280;64760;53.404;23.498;2023-04-25T06:08:46;98277.38;;;11.73;73.54
73594;BME280;64760;53.404;23.498;2023-04-25T06:11:13;98273.84;;;11.85;73.06
73594;BME280;64760;53.404;23.498;2023-04-25T06:13:39;98278.03;;;12.09;73.29
73594;BME280;64760;53.404;23.498;2023-04-25T06:16:06;98279.84;;;12.37;71.25
73594;BME280;64760;53.404;23.498;2023-04-25T06:18:33;98276.78;;;12.61;69.51
73594;BME280;64760;53.404;23.498;2023-04-25T06:21:00;98273.22;;;12.94;68.72
73594;BME280;64760;53.404;23.498;2023-04-25T06:23:26;98268.59;;;13.28;67.87
73594;BME280;64760;53.404;23.498;2023-04-25T06:25:59;98282.38;;;13.53;66.02
73594;BME280;64760;53.404;23.498;2023-04-25T06:28:27;98282.56;;;13.69;64.73
73594;BME280;64760;53.404;23.498;2023-04-25T06:30:53;98279.66;;;13.75;63.87
73594;BME280;64760;53.404;23.498;2023-04-25T06:33:20;98273.72;;;13.73;63.11
73594;BME280;64760;53.404;23.498;2023-04-25T06:35:48;98269.41;;;13.72;62.91
73594;BME280;64760;53.404;23.498;2023-04-25T06:38:17;98282.66;;;13.79;62.88
73594;BME280;64760;53.404;23.498;2023-04-25T06:40:48;98274.34;;;13.80;62.39
73594;BME280;64760;53.404;23.498;2023-04-25T06:43:14;98278.00;;;13.96;63.07
73594;BME280;64760;53.404;23.498;2023-04-25T06:45:56;98278.09;;;14.06;62.08
73594;BME280;64760;53.404;23.498;2023-04-25T06:48:24;98281.44;;;14.18;62.28
73594;BME280;64760;53.404;23.498;2023-04-25T06:50:52;98272.53;;;14.39;61.79
73594;BME280;64760;53.404;23.498;2023-04-25T06:53:19;98272.56;;;14.44;61.58
73594;BME280;64760;53.404;23.498;2023-04-25T06:55:49;98271.09;;;14.64;61.09
73594;BME280;64760;53.404;23.498;2023-04-25T06:58:21;98278.31;;;14.53;60.78
73594;BME280;64760;53.404;23.498;2023-04-25T07:00:56;98273.63;;;14.75;60.12
73594;BME280;64760;53.404;23.498;2023-04-25T07:03:24;98276.66;;;14.84;59.47
73594;BME280;64760;53.404;23.498;2023-04-25T07:05:55;98267.50;;;14.85;59.31
73594;BME280;64760;53.404;23.498;2023-04-25T07:08:21;98266.66;;;14.84;59.00
73594;BME280;64760;53.404;23.498;2023-04-25T07:10:48;98270.28;;;15.00;58.82
73594;BME280;64760;53.404;23.498;2023-04-25T07:13:14;98270.31;;;15.10;58.12
73594;BME280;64760;53.404;23.498;2023-04-25T07:15:43;98265.97;;;15.04;57.66
73594;BME280;64760;53.404;23.498;2023-04-25T07:18:10;98269.22;;;15.06;57.83
73594;BME280;64760;53.404;23.498;2023-04-25T07:20:36;98256.34;;;15.18;58.74
73594;BME280;64760;53.404;23.498;2023-04-25T07:23:03;98261.47;;;15.25;56.62
73594;BME280;64760;53.404;23.498;2023-04-25T07:25:29;98257.47;;;15.27;56.49
73594;BME280;64760;53.404;23.498;2023-04-25T07:27:57;98259.69;;;15.45;56.61
73594;BME280;64760;53.404;23.498;2023-04-25T07:30:23;98263.19;;;15.36;56.14
73594;BME280;64760;53.404;23.498;2023-04-25T07:32:50;98262.44;;;15.50;56.13
73594;BME280;64760;53.404;23.498;2023-04-25T07:35:17;98254.38;;;15.61;55.56
73594;BME280;64760;53.404;23.498;2023-04-25T07:37:43;98254.72;;;15.79;55.28
73594;BME280;64760;53.404;23.498;2023-04-25T07:40:13;98260.66;;;15.81;56.21
73594;BME280;64760;53.404;23.498;2023-04-25T07:42:45;98253.41;;;15.97;54.02
73594;BME280;64760;53.404;23.498;2023-04-25T07:45:17;98251.28;;;16.04;54.76
73594;BME280;64760;53.404;23.498;2023-04-25T07:47:43;98255.31;;;16.17;53.80
73594;BME280;64760;53.404;23.498;2023-04-25T07:50:10;98245.84;;;16.24;53.71
73594;BME280;64760;53.404;23.498;2023-04-25T07:52:38;98247.47;;;16.20;53.64
73594;BME280;64760;53.404;23.498;2023-04-25T07:55:16;98244.78;;;16.25;53.13
73594;BME280;64760;53.404;23.498;2023-04-25T07:58:03;98240.16;;;16.06;53.35
73594;BME280;64760;53.404;23.498;2023-04-25T08:00:31;98252.38;;;16.23;54.12
73594;BME280;64760;53.404;23.498;2023-04-25T08:03:17;98256.69;;;16.55;53.74
73594;BME280;64760;53.404;23.498;2023-04-25T08:05:44;98248.59;;;16.75;53.06
73594;BME280;64760;53.404;23.498;2023-04-25T08:08:12;98249.66;;;16.89;51.53
73594;BME280;64760;53.404;23.498;2023-04-25T08:10:38;98249.66;;;16.99;51.22
73594;BME280;64760;53.404;23.498;2023-04-25T08:13:05;98248.03;;;16.98;50.84
73594;BME280;64760;53.404;23.498;2023-04-25T08:15:31;98243.94;;;17.01;50.73
73594;BME280;64760;53.404;23.498;2023-04-25T08:17:57;98246.63;;;17.11;50.51
73594;BME280;64760;53.404;23.498;2023-04-25T08:20:24;98241.44;;;17.24;50.83
73594;BME280;64760;53.404;23.498;2023-04-25T08:22:53;98243.00;;;17.41;50.44
73594;BME280;64760;53.404;23.498;2023-04-25T08:25:31;98235.66;;;17.51;49.72
73594;BME280;64760;53.404;23.498;2023-04-25T08:27:57;98245.56;;;17.76;49.04
73594;BME280;64760;53.404;23.498;2023-04-25T08:30:25;98233.56;;;17.92;47.86
73594;BME280;64760;53.404;23.498;2023-04-25T08:32:53;98237.53;;;18.10;47.98
73594;BME280;64760;53.404;23.498;2023-04-25T08:35:39;98238.25;;;18.20;45.94
73594;BME280;64760;53.404;23.498;2023-04-25T08:38:06;98239.66;;;18.13;46.77
73594;BME280;64760;53.404;23.498;2023-04-25T08:40:35;98232.84;;;18.15;46.19
73594;BME280;64760;53.404;23.498;2023-04-25T08:43:13;98233.25;;;18.38;46.75
73594;BME280;64760;53.404;23.498;2023-04-25T08:45:42;98239.25;;;18.35;46.42
73594;BME280;64760;53.404;23.498;2023-04-25T08:48:13;98243.03;;;18.34;46.13
73594;BME280;64760;53.404;23.498;2023-04-25T08:53:14;98242.84;;;18.25;45.03
73594;BME280;64760;53.404;23.498;2023-04-25T08:55:46;98238.34;;;18.44;45.45
73594;BME280;64760;53.404;23.498;2023-04-25T08:58:13;98238.88;;;18.80;45.30
73594;BME280;64760;53.404;23.498;2023-04-25T09:00:40;98246.28;;;18.74;43.88
73594;BME280;64760;53.404;23.498;2023-04-25T09:03:07;98246.94;;;18.90;45.56
73594;BME280;64760;53.404;23.498;2023-04-25T09:05:36;98248.94;;;19.03;43.57
73594;BME280;64760;53.404;23.498;2023-04-25T09:08:02;98243.72;;;19.36;43.35
73594;BME280;64760;53.404;23.498;2023-04-25T09:10:30;98239.97;;;19.55;44.12
73594;BME280;64760;53.404;23.498;2023-04-25T09:13:08;98235.72;;;19.20;43.87
73594;BME280;64760;53.404;23.498;2023-04-25T09:15:56;98243.84;;;19.49;43.66
73594;BME280;64760;53.404;23.498;2023-04-25T09:18:44;98242.91;;;19.59;43.32
73594;BME280;64760;53.404;23.498;2023-04-25T09:21:13;98246.50;;;19.31;43.23
73594;BME280;64760;53.404;23.498;2023-04-25T09:23:45;98245.22;;;19.47;43.21
73594;BME280;64760;53.404;23.498;2023-04-25T09:26:19;98246.47;;;19.78;42.58
73594;BME280;64760;53.404;23.498;2023-04-25T09:28:46;98250.06;;;19.74;42.64
73594;BME280;64760;53.404;23.498;2023-04-25T09:31:23;98237.72;;;19.39;43.44
73594;BME280;64760;53.404;23.498;2023-04-25T09:33:59;98247.22;;;19.36;43.21
73594;BME280;64760;53.404;23.498;2023-04-25T09:36:30;98240.59;;;19.90;43.58
73594;BME280;64760;53.404;23.498;2023-04-25T09:39:12;98238.53;;;20.00;42.07
73594;BME280;64760;53.404;23.498;2023-04-25T09:41:43;98239.06;;;20.21;42.38
73594;BME280;64760;53.404;23.498;2023-04-25T09:44:12;98229.03;;;19.79;42.47
73594;BME280;64760;53.404;23.498;2023-04-25T09:46:40;98242.56;;;19.84;43.03
73594;BME280;64760;53.404;23.498;2023-04-25T09:49:14;98236.25;;;20.26;41.92
73594;BME280;64760;53.404;23.498;2023-04-25T09:52:01;98237.63;;;20.61;41.67
73594;BME280;64760;53.404;23.498;2023-04-25T09:54:43;98236.34;;;21.18;40.26
73594;BME280;64760;53.404;23.498;2023-04-25T09:57:16;98235.91;;;20.97;40.94
73594;BME280;64760;53.404;23.498;2023-04-25T09:59:45;98225.34;;;21.37;39.28
73594;BME280;64760;53.404;23.498;2023-04-25T10:02:17;98233.91;;;21.30;39.43
73594;BME280;64760;53.404;23.498;2023-04-25T10:04:54;98225.25;;;21.28;39.59
73594;BME280;64760;53.404;23.498;2023-04-25T10:07:28;98227.72;;;21.11;41.17
73594;BME280;64760;53.404;23.498;2023-04-25T10:10:03;98235.25;;;20.87;40.99
73594;BME280;64760;53.404;23.498;2023-04-25T10:12:32;98235.13;;;20.78;42.32
73594;BME280;64760;53.404;23.498;2023-04-25T10:14:59;98234.56;;;20.81;42.44
73594;BME280;64760;53.404;23.498;2023-04-25T10:17:26;98228.38;;;20.62;41.88
73594;BME280;64760;53.404;23.498;2023-04-25T10:19:55;98234.38;;;20.59;42.36
73594;BME280;64760;53.404;23.498;2023-04-25T10:24:55;98226.72;;;20.29;43.25
73594;BME280;64760;53.404;23.498;2023-04-25T10:27:22;98221.56;;;20.46;43.24
73594;BME280;64760;53.404;23.498;2023-04-25T10:32:33;98220.72;;;20.27;44.20
73594;BME280;64760;53.404;23.498;2023-04-25T10:35:10;98220.63;;;20.50;43.64
73594;BME280;64760;53.404;23.498;2023-04-25T10:37:37;98228.44;;;19.63;45.13
73594;BME280;64760;53.404;23.498;2023-04-25T10:40:10;98227.00;;;20.08;43.68
73594;BME280;64760;53.404;23.498;2023-04-25T10:42:37;98222.06;;;19.92;44.56
73594;BME280;64760;53.404;23.498;2023-04-25T10:45:06;98223.09;;;19.77;44.69
73594;BME280;64760;53.404;23.498;2023-04-25T10:47:36;98225.66;;;19.50;45.30
73594;BME280;64760;53.404;23.498;2023-04-25T10:50:09;98231.53;;;19.57;45.68
73594;BME280;64760;53.404;23.498;2023-04-25T10:52:38;98226.84;;;19.81;46.32
73594;BME280;64760;53.404;23.498;2023-04-25T10:55:05;98221.41;;;20.00;44.97
73594;BME280;64760;53.404;23.498;2023-04-25T11:00:13;98229.88;;;20.68;45.35
73594;BME280;64760;53.404;23.498;2023-04-25T11:02:46;98228.50;;;20.84;44.98
73594;BME280;64760;53.404;23.498;2023-04-25T11:07:55;98216.78;;;20.38;44.58
73594;BME280;64760;53.404;23.498;2023-04-25T11:10:31;98220.06;;;19.79;42.71
73594;BME280;64760;53.404;23.498;2023-04-25T11:12:58;98222.22;;;20.00;43.22
73594;BME280;64760;53.404;23.498;2023-04-25T11:15:25;98223.97;;;19.91;44.18
73594;BME280;64760;53.404;23.498;2023-04-25T11:17:52;98223.75;;;20.06;43.24
73594;BME280;64760;53.404;23.498;2023-04-25T11:20:18;98221.66;;;20.54;42.35
73594;BME280;64760;53.404;23.498;2023-04-25T11:22:46;98224.38;;;20.54;42.25
73594;BME280;64760;53.404;23.498;2023-04-25T11:25:14;98216.09;;;20.46;41.81
73594;BME280;64760;53.404;23.498;2023-04-25T11:27:54;98210.00;;;20.68;41.80
73594;BME280;64760;53.404;23.498;2023-04-25T11:30:21;98212.47;;;20.50;42.40
73594;BME280;64760;53.404;23.498;2023-04-25T11:32:48;98215.59;;;20.90;41.51
73594;BME280;64760;53.404;23.498;2023-04-25T11:35:14;98207.75;;;20.56;40.64
73594;BME280;64760;53.404;23.498;2023-04-25T11:37:44;98213.28;;;20.97;40.04
73594;BME280;64760;53.404;23.498;2023-04-25T11:40:11;98213.28;;;21.10;39.61
73594;BME280;64760;53.404;23.498;2023-04-25T11:42:47;98216.34;;;21.09;41.64
73594;BME280;64760;53.404;23.498;2023-04-25T11:45:14;98209.19;;;20.67;41.71
73594;BME280;64760;53.404;23.498;2023-04-25T11:47:42;98198.69;;;20.09;41.91
73594;BME280;64760;53.404;23.498;2023-04-25T11:50:08;98200.75;;;20.36;42.07
73594;BME280;64760;53.404;23.498;2023-04-25T11:52:46;98205.81;;;20.24;41.37
73594;BME280;64760;53.404;23.498;2023-04-25T11:55:14;98198.13;;;20.91;41.69
73594;BME280;64760;53.404;23.498;2023-04-25T11:57:42;98192.88;;;20.94;40.68
73594;BME280;64760;53.404;23.498;2023-04-25T12:00:17;98182.25;;;21.25;40.48
73594;BME280;64760;53.404;23.498;2023-04-25T12:02:46;98183.69;;;21.72;40.13
73594;BME280;64760;53.404;23.498;2023-04-25T12:05:14;98185.13;;;21.56;39.92
73594;BME280;64760;53.404;23.498;2023-04-25T12:07:42;98183.22;;;21.57;39.98
73594;BME280;64760;53.404;23.498;2023-04-25T12:10:14;98175.56;;;21.31;40.14
73594;BME280;64760;53.404;23.498;2023-04-25T12:12:42;98176.59;;;21.22;39.58
73594;BME280;64760;53.404;23.498;2023-04-25T12:15:13;98177.94;;;20.78;39.72
73594;BME280;64760;53.404;23.498;2023-04-25T12:17:44;98179.50;;;20.52;39.81
73594;BME280;64760;53.404;23.498;2023-04-25T12:20:23;98170.97;;;20.07;40.63
73594;BME280;64760;53.404;23.498;2023-04-25T12:22:51;98180.19;;;19.74;45.63
73594;BME280;64760;53.404;23.498;2023-04-25T12:25:37;98180.00;;;18.99;48.87
73594;BME280;64760;53.404;23.498;2023-04-25T12:33:36;98181.22;;;15.82;62.93
73594;BME280;64760;53.404;23.498;2023-04-25T12:36:04;98183.94;;;15.97;66.24
73594;BME280;64760;53.404;23.498;2023-04-25T12:38:37;98192.31;;;16.01;63.97
73594;BME280;64760;53.404;23.498;2023-04-25T12:41:03;98185.03;;;16.12;66.36
73594;BME280;64760;53.404;23.498;2023-04-25T12:43:30;98176.09;;;16.36;64.92
73594;BME280;64760;53.404;23.498;2023-04-25T12:45:56;98162.84;;;16.60;61.65
73594;BME280;64760;53.404;23.498;2023-04-25T12:48:23;98169.56;;;16.73;63.73
73594;BME280;64760;53.404;23.498;2023-04-25T12:50:50;98165.97;;;17.08;58.81
73594;BME280;64760;53.404;23.498;2023-04-25T12:53:19;98158.59;;;17.23;56.22
73594;BME280;64760;53.404;23.498;2023-04-25T12:55:47;98161.81;;;17.25;58.72
73594;BME280;64760;53.404;23.498;2023-04-25T12:58:14;98159.34;;;16.39;63.00
73594;BME280;64760;53.404;23.498;2023-04-25T13:00:42;98159.88;;;16.62;67.72
73594;BME280;64760;53.404;23.498;2023-04-25T13:03:09;98163.03;;;16.84;65.11
73594;BME280;64760;53.404;23.498;2023-04-25T13:05:37;98170.69;;;16.47;70.21
73594;BME280;64760;53.404;23.498;2023-04-25T13:08:04;98168.78;;;16.42;71.67
73594;BME280;64760;53.404;23.498;2023-04-25T13:10:30;98171.25;;;16.18;71.91
73594;BME280;64760;53.404;23.498;2023-04-25T13:12:57;98168.00;;;16.06;67.59
73594;BME280;64760;53.404;23.498;2023-04-25T13:15:24;98172.88;;;16.09;66.36
73594;BME280;64760;53.404;23.498;2023-04-25T13:17:50;98184.78;;;16.08;74.23
73594;BME280;64760;53.404;23.498;2023-04-25T13:20:17;98188.50;;;15.72;81.50
73594;BME280;64760;53.404;23.498;2023-04-25T13:22:45;98200.25;;;15.35;85.89
73594;BME280;64760;53.404;23.498;2023-04-25T13:25:11;98202.25;;;14.98;87.80
73594;BME280;64760;53.404;23.498;2023-04-25T13:27:37;98221.06;;;14.83;91.71
73594;BME280;64760;53.404;23.498;2023-04-25T13:30:05;98218.13;;;14.47;90.78
73594;BME280;64760;53.404;23.498;2023-04-25T13:32:37;98221.16;;;13.97;95.08
73594;BME280;64760;53.404;23.498;2023-04-25T13:35:09;98219.44;;;13.86;97.57